Time;durP1;ratioP1;P1;durP2;ratioP2;P2;SDS_P1;SDS_P2;PMS_P1;PMS_P2;Temp;Humidity;BMP_temperature;BMP_pressure;BME280_temperature;BME280_humidity;BME280_pressure;Samples;Min_cycle;Max_cycle;Signal;HPM_P1;HPM_P2
2023/04/26 00:01:57;;;;;;;;;;;5.30;99.90;;;;;;5016519;28;19905;-85
2023/04/26 00:04:23;;;;;;;;;;;5.30;99.90;;;;;;5005594;28;19913;-85
2023/04/26 00:06:49;;;;;;;;;;;5.20;99.90;;;;;;5004190;28;19993;-84
2023/04/26 00:09:15;;;;;;;;;;;5.20;99.90;;;;;;5019874;28;20361;-84
2023/04/26 00:11:40;;;;;;;;;;;5.20;99.90;;;;;;5003994;28;19959;-85
2023/04/26 00:14:06;;;;;;;;;;;5.20;99.90;;;;;;5000590;28;19905;-85
2023/04/26 00:16:31;;;;;;;;;;;5.20;99.90;;;;;;5016051;28;19959;-85
2023/04/26 00:18:59;;;;;;;;;;;5.20;99.90;;;;;;5014261;28;20218;-85
2023/04/26 00:21:25;;;;;;;;;;;5.20;99.90;;;;;;5015087;28;19909;-84
2023/04/26 00:23:51;;;;;;;;;;;5.20;99.90;;;;;;5018442;28;20444;-85
2023/04/26 00:26:16;;;;;;;;;;;5.10;99.90;;;;;;5003948;28;19916;-85
2023/04/26 00:28:42;;;;;;;;;;;5.20;99.90;;;;;;5021119;28;19916;-85
2023/04/26 00:31:12;;;;;;;;;;;5.10;99.90;;;;;;5022416;28;20284;-85
2023/04/26 00:33:40;;;;;;;;;;;5.10;99.90;;;;;;5047329;28;19936;-85
2023/04/26 00:36:06;;;;;;;;;;;5.10;99.90;;;;;;5028246;28;19893;-85
2023/04/26 00:38:31;;;;;;;;;;;5.10;99.90;;;;;;5046929;28;20370;-85
2023/04/26 00:40:57;;;;;;;;;;;5.10;99.90;;;;;;5030168;28;19897;-85
2023/04/26 00:43:22;;;;;;;;;;;5.10;99.90;;;;;;5064338;28;19908;-85
2023/04/26 00:45:48;;;;;;;;;;;5.10;99.90;;;;;;5039838;28;19920;-85
2023/04/26 00:48:14;;;;;;;;;;;5.00;99.90;;;;;;5045112;28;20024;-84
2023/04/26 00:50:40;;;;;;;;;;;5.00;99.90;;;;;;5030739;28;20076;-85
2023/04/26 00:53:07;;;;;;;;;;;5.00;99.90;;;;;;5047347;28;19906;-85
2023/04/26 00:55:32;;;;;;;;;;;4.90;99.90;;;;;;5025683;28;20404;-85
2023/04/26 00:58:00;;;;;;;;;;;4.90;99.90;;;;;;5020355;28;20185;-84
2023/04/26 01:00:26;;;;;;;;;;;4.90;99.90;;;;;;5017090;28;19925;-85
2023/04/26 01:02:52;;;;;;;;;;;4.90;99.90;;;;;;5010523;28;20896;-85
2023/04/26 01:05:17;;;;;;;;;;;4.90;99.90;;;;;;5040744;28;19987;-85
2023/04/26 01:07:43;;;;;;;;;;;4.90;99.90;;;;;;5052507;28;19909;-84
2023/04/26 01:10:09;;;;;;;;;;;4.80;99.90;;;;;;5010568;28;20372;-85
2023/04/26 01:12:35;;;;;;;;;;;4.80;99.90;;;;;;5007478;28;19920;-85
2023/04/26 01:15:01;;;;;;;;;;;4.80;99.90;;;;;;5021298;28;19917;-85
2023/04/26 01:17:27;;;;;;;;;;;4.80;99.90;;;;;;5036664;28;19936;-85
2023/04/26 01:19:52;;;;;;;;;;;4.70;99.90;;;;;;5001473;28;20029;-85
2023/04/26 01:22:18;;;;;;;;;;;4.70;99.90;;;;;;5005541;28;19912;-85
2023/04/26 01:24:45;;;;;;;;;;;4.70;99.90;;;;;;5020261;28;19912;-85
2023/04/26 01:27:11;;;;;;;;;;;4.60;99.90;;;;;;5024112;28;20376;-85
2023/04/26 01:29:36;;;;;;;;;;;4.50;99.90;;;;;;5004816;28;19905;-85
2023/04/26 01:32:01;;;;;;;;;;;4.60;99.90;;;;;;5021533;28;19936;-85
2023/04/26 01:34:27;;;;;;;;;;;4.60;99.90;;;;;;5016851;28;19963;-84
2023/04/26 01:36:53;;;;;;;;;;;4.50;99.90;;;;;;5037104;28;19917;-84
2023/04/26 01:39:18;;;;;;;;;;;4.60;99.90;;;;;;5008268;28;19908;-85
2023/04/26 01:41:44;;;;;;;;;;;4.50;99.90;;;;;;5003181;28;19913;-85
2023/04/26 01:44:09;;;;;;;;;;;4.50;99.90;;;;;;5007139;28;20254;-85
2023/04/26 01:46:35;;;;;;;;;;;4.50;99.90;;;;;;5004000;28;19913;-86
2023/04/26 01:49:00;;;;;;;;;;;4.50;99.90;;;;;;5003297;28;19990;-85
2023/04/26 01:51:26;;;;;;;;;;;4.50;99.90;;;;;;5033876;28;19928;-85
2023/04/26 01:53:51;;;;;;;;;;;4.50;99.90;;;;;;5024486;28;20284;-85
2023/04/26 01:56:18;;;;;;;;;;;4.50;99.90;;;;;;5035343;28;19927;-85
2023/04/26 01:58:43;;;;;;;;;;;4.50;99.90;;;;;;5020220;28;19912;-86
2023/04/26 02:01:09;;;;;;;;;;;4.50;99.90;;;;;;5008815;28;19913;-85
2023/04/26 02:03:34;;;;;;;;;;;4.40;99.90;;;;;;5000566;28;20369;-86
2023/04/26 02:06:00;;;;;;;;;;;4.40;99.90;;;;;;5020752;28;19905;-86
2023/04/26 02:08:26;;;;;;;;;;;4.50;99.90;;;;;;5001448;28;19905;-85
2023/04/26 02:10:51;;;;;;;;;;;4.50;99.90;;;;;;5003303;28;19905;-87
2023/04/26 02:13:18;;;;;;;;;;;4.40;99.90;;;;;;5002728;28;20356;-85
2023/04/26 02:15:50;;;;;;;;;;;4.30;99.90;;;;;;5004231;28;20196;-85
2023/04/26 02:18:16;;;;;;;;;;;4.30;99.90;;;;;;4999661;28;19913;-86
2023/04/26 02:20:42;;;;;;;;;;;4.20;99.90;;;;;;5019224;28;19905;-86
2023/04/26 02:23:08;;;;;;;;;;;4.20;99.90;;;;;;5031823;28;19905;-84
2023/04/26 02:25:33;;;;;;;;;;;4.20;99.90;;;;;;5019437;28;19912;-86
2023/04/26 02:27:59;;;;;;;;;;;4.10;99.90;;;;;;5005466;28;19920;-86
2023/04/26 02:30:24;;;;;;;;;;;4.10;99.90;;;;;;5004032;28;20034;-86
2023/04/26 02:32:52;;;;;;;;;;;4.00;99.90;;;;;;5002767;28;19965;-86
2023/04/26 02:35:17;;;;;;;;;;;4.00;99.90;;;;;;5002305;28;19993;-86
2023/04/26 02:37:43;;;;;;;;;;;3.90;99.90;;;;;;5020598;28;19909;-86
2023/04/26 02:40:09;;;;;;;;;;;3.90;99.90;;;;;;5028985;28;20318;-84
2023/04/26 02:42:35;;;;;;;;;;;3.90;99.90;;;;;;5038213;28;19948;-85
2023/04/26 02:45:00;;;;;;;;;;;3.90;99.90;;;;;;5031638;28;20442;-84
2023/04/26 02:47:26;;;;;;;;;;;3.80;99.90;;;;;;5016855;28;19906;-85
2023/04/26 02:49:51;;;;;;;;;;;3.70;99.90;;;;;;5000390;28;19916;-85
2023/04/26 02:52:17;;;;;;;;;;;3.70;99.90;;;;;;5029685;28;19912;-85
2023/04/26 02:54:42;;;;;;;;;;;3.60;99.90;;;;;;5002452;28;20002;-85
2023/04/26 02:57:08;;;;;;;;;;;3.50;99.90;;;;;;5020234;28;19924;-85
2023/04/26 02:59:34;;;;;;;;;;;3.50;99.90;;;;;;5003881;28;19909;-84
2023/04/26 03:01:59;;;;;;;;;;;3.50;99.90;;;;;;4999436;28;20356;-85
2023/04/26 03:04:25;;;;;;;;;;;3.40;99.90;;;;;;4998258;28;19909;-85
2023/04/26 03:06:50;;;;;;;;;;;3.40;99.90;;;;;;5005440;28;19910;-85
2023/04/26 03:09:23;;;;;;;;;;;3.40;99.90;;;;;;5017165;28;19971;-85
2023/04/26 03:11:49;;;;;;;;;;;3.40;99.90;;;;;;5019249;28;20019;-85
2023/04/26 03:14:14;;;;;;;;;;;3.40;99.90;;;;;;5003932;28;19941;-85
2023/04/26 03:16:41;;;;;;;;;;;3.40;99.90;;;;;;5001435;28;20696;-85
2023/04/26 03:19:07;;;;;;;;;;;3.50;99.90;;;;;;4998494;28;19960;-85
2023/04/26 03:21:32;;;;;;;;;;;3.40;99.90;;;;;;5017724;28;20330;-85
2023/04/26 03:23:58;;;;;;;;;;;3.40;99.90;;;;;;5014017;28;20362;-85
2023/04/26 03:26:23;;;;;;;;;;;3.40;99.90;;;;;;5033931;28;19905;-85
2023/04/26 03:28:49;;;;;;;;;;;3.30;99.90;;;;;;5003043;28;19905;-85
2023/04/26 03:31:15;;;;;;;;;;;3.30;99.90;;;;;;5018361;28;19913;-85
2023/04/26 03:33:40;;;;;;;;;;;3.30;99.90;;;;;;5025625;28;19906;-85
2023/04/26 03:36:06;;;;;;;;;;;3.20;99.90;;;;;;5029763;28;19931;-85
2023/04/26 03:38:32;;;;;;;;;;;3.20;99.90;;;;;;5018628;28;19905;-85
2023/04/26 03:40:57;;;;;;;;;;;3.20;99.90;;;;;;5003656;28;19910;-85
2023/04/26 03:43:23;;;;;;;;;;;3.20;99.90;;;;;;4999243;28;20016;-85
2023/04/26 03:45:49;;;;;;;;;;;3.20;99.90;;;;;;5007160;28;19909;-84
2023/04/26 03:48:15;;;;;;;;;;;3.20;99.90;;;;;;5020884;28;19905;-85
2023/04/26 03:50:40;;;;;;;;;;;3.20;99.90;;;;;;5018080;28;19913;-85
2023/04/26 03:53:06;;;;;;;;;;;3.20;99.90;;;;;;5005876;28;20296;-85
2023/04/26 03:55:32;;;;;;;;;;;3.20;99.90;;;;;;5012908;28;19909;-87
2023/04/26 03:57:57;;;;;;;;;;;3.20;99.90;;;;;;5002370;28;20376;-85
2023/04/26 04:00:23;;;;;;;;;;;3.30;99.90;;;;;;5038476;28;19909;-85
2023/04/26 04:02:48;;;;;;;;;;;3.30;99.90;;;;;;5006268;28;19909;-85
2023/04/26 04:05:14;;;;;;;;;;;3.30;99.90;;;;;;5021272;28;19909;-85
2023/04/26 04:07:40;;;;;;;;;;;3.30;99.90;;;;;;5028681;28;20352;-85
2023/04/26 04:10:06;;;;;;;;;;;3.30;99.90;;;;;;5006132;28;20356;-85
2023/04/26 04:12:31;;;;;;;;;;;3.30;99.90;;;;;;5004528;28;20183;-85
2023/04/26 04:14:57;;;;;;;;;;;3.30;99.90;;;;;;5020373;28;19913;-85
2023/04/26 04:17:23;;;;;;;;;;;3.30;99.90;;;;;;5035237;28;19940;-85
2023/04/26 04:19:48;;;;;;;;;;;3.30;99.90;;;;;;5007882;28;19915;-85
2023/04/26 04:22:14;;;;;;;;;;;3.30;99.90;;;;;;5006321;28;19912;-85
2023/04/26 04:24:41;;;;;;;;;;;3.30;99.90;;;;;;5005825;28;20352;-86
2023/04/26 04:27:06;;;;;;;;;;;3.30;99.90;;;;;;5011183;28;19906;-88
2023/04/26 04:29:32;;;;;;;;;;;3.30;99.90;;;;;;5021224;28;19897;-87
2023/04/26 04:32:05;;;;;;;;;;;3.30;99.90;;;;;;5033743;28;20069;-87
2023/04/26 04:34:33;;;;;;;;;;;3.30;99.90;;;;;;5023171;28;20000;-88
2023/04/26 04:36:58;;;;;;;;;;;3.30;99.90;;;;;;5025822;28;20012;-88
2023/04/26 04:39:24;;;;;;;;;;;3.40;99.90;;;;;;5009514;28;20353;-88
2023/04/26 04:41:50;;;;;;;;;;;3.40;99.90;;;;;;5009006;28;19934;-87
2023/04/26 04:44:16;;;;;;;;;;;3.40;99.90;;;;;;5032515;28;19987;-88
2023/04/26 04:46:42;;;;;;;;;;;3.40;99.90;;;;;;5005554;28;19905;-87
2023/04/26 04:49:11;;;;;;;;;;;3.40;99.90;;;;;;5014027;28;20001;-88
2023/04/26 04:51:37;;;;;;;;;;;3.50;99.90;;;;;;5027421;28;19909;-88
2023/04/26 04:54:29;;;;;;;;;;;3.40;99.90;;;;;;5050169;28;19913;-87
2023/04/26 04:56:57;;;;;;;;;;;3.40;99.90;;;;;;5020591;28;19929;-88
2023/04/26 04:59:23;;;;;;;;;;;3.50;99.90;;;;;;5020731;28;19905;-87
2023/04/26 05:01:49;;;;;;;;;;;3.60;99.90;;;;;;5023893;28;20052;-88
2023/04/26 05:04:15;;;;;;;;;;;3.70;99.90;;;;;;5008286;28;19909;-88
2023/04/26 05:06:40;;;;;;;;;;;3.80;99.90;;;;;;5013990;28;19913;-88
2023/04/26 05:09:06;;;;;;;;;;;3.90;99.90;;;;;;5014858;28;20000;-88
2023/04/26 05:11:32;;;;;;;;;;;4.00;99.90;;;;;;5011310;28;19905;-88
2023/04/26 05:13:58;;;;;;;;;;;4.10;99.90;;;;;;5009197;28;20257;-87
2023/04/26 05:16:23;;;;;;;;;;;4.10;99.90;;;;;;5005718;28;19913;-90
2023/04/26 05:18:49;;;;;;;;;;;4.30;99.90;;;;;;5007183;28;19921;-88
2023/04/26 05:21:15;;;;;;;;;;;4.40;99.90;;;;;;5009158;28;19996;-90
2023/04/26 05:23:40;;;;;;;;;;;4.50;99.90;;;;;;5010003;28;19912;-90
2023/04/26 05:26:06;;;;;;;;;;;4.60;99.90;;;;;;5011165;28;19906;-88
2023/04/26 05:28:33;;;;;;;;;;;4.70;99.90;;;;;;5016153;28;19909;-90
2023/04/26 05:30:58;;;;;;;;;;;4.70;99.90;;;;;;5157449;22;20053;-88
2023/04/26 05:33:24;;;;;;;;;;;4.80;99.90;;;;;;5023486;28;19996;-89
2023/04/26 05:35:51;;;;;;;;;;;4.90;99.90;;;;;;5021667;28;20356;-89
2023/04/26 05:38:17;;;;;;;;;;;4.90;99.90;;;;;;5021505;28;19920;-90
2023/04/26 05:40:42;;;;;;;;;;;5.00;99.90;;;;;;5036389;28;19936;-87
2023/04/26 05:43:08;;;;;;;;;;;5.00;99.90;;;;;;5030835;28;19909;-87
2023/04/26 05:45:41;;;;;;;;;;;5.00;99.90;;;;;;5028704;28;20231;-89
2023/04/26 05:48:06;;;;;;;;;;;5.10;99.90;;;;;;5030842;28;19909;-90
2023/04/26 05:50:32;;;;;;;;;;;5.10;99.90;;;;;;5033351;28;19959;-89
2023/04/26 05:52:57;;;;;;;;;;;5.20;99.90;;;;;;5048276;28;19909;-90
2023/04/26 05:55:23;;;;;;;;;;;5.30;99.90;;;;;;5040335;28;20276;-89
2023/04/26 05:57:49;;;;;;;;;;;5.50;99.90;;;;;;5028690;28;19920;-91
2023/04/26 06:00:15;;;;;;;;;;;5.70;99.90;;;;;;5011302;28;19929;-89
2023/04/26 06:02:41;;;;;;;;;;;5.80;99.90;;;;;;5011139;28;19914;-91
2023/04/26 06:05:07;;;;;;;;;;;5.90;99.90;;;;;;5010456;28;19960;-91
2023/04/26 06:07:33;;;;;;;;;;;6.10;99.90;;;;;;5005642;28;20008;-90
2023/04/26 06:10:01;;;;;;;;;;;6.20;99.90;;;;;;4992234;28;19967;-91
2023/04/26 06:12:27;;;;;;;;;;;6.30;99.90;;;;;;4998317;28;20726;-89
2023/04/26 06:14:52;;;;;;;;;;;6.40;99.90;;;;;;4993819;28;19967;-90
2023/04/26 06:17:18;;;;;;;;;;;6.50;99.90;;;;;;4994942;28;20043;-90
2023/04/26 06:19:43;;;;;;;;;;;6.60;99.90;;;;;;5014600;28;19912;-90
2023/04/26 06:22:09;;;;;;;;;;;6.70;99.90;;;;;;5011104;28;19905;-91
2023/04/26 06:24:34;;;;;;;;;;;6.90;99.90;;;;;;5013335;28;19969;-90
2023/04/26 06:27:00;;;;;;;;;;;7.00;99.90;;;;;;5031511;28;19901;-91
2023/04/26 06:29:25;;;;;;;;;;;7.10;99.90;;;;;;5016433;28;19942;-90
2023/04/26 06:31:51;;;;;;;;;;;7.30;99.90;;;;;;5025931;28;19991;-88
2023/04/26 06:34:16;;;;;;;;;;;7.50;99.90;;;;;;5040910;28;19951;-87
2023/04/26 06:36:42;;;;;;;;;;;7.70;99.90;;;;;;5041602;28;19921;-89
2023/04/26 06:39:08;;;;;;;;;;;7.80;99.90;;;;;;5049167;28;19933;-89
2023/04/26 06:41:33;;;;;;;;;;;8.00;99.90;;;;;;5029290;28;19944;-88
2023/04/26 06:43:59;;;;;;;;;;;7.90;99.90;;;;;;5041082;28;19907;-88
2023/04/26 06:46:24;;;;;;;;;;;7.90;99.90;;;;;;5030073;28;19919;-88
2023/04/26 06:48:52;;;;;;;;;;;7.80;99.90;;;;;;5009558;28;19972;-88
2023/04/26 06:51:17;;;;;;;;;;;7.80;99.90;;;;;;5013064;28;19916;-87
2023/04/26 06:53:43;;;;;;;;;;;7.80;99.90;;;;;;5044940;28;19999;-87
2023/04/26 06:56:09;;;;;;;;;;;8.00;99.90;;;;;;5034596;28;20003;-84
2023/04/26 06:58:35;;;;;;;;;;;8.20;99.90;;;;;;5019588;28;19916;-82
2023/04/26 07:01:01;;;;;;;;;;;8.30;99.90;;;;;;5040243;28;19948;-87
2023/04/26 07:03:26;;;;;;;;;;;8.40;99.90;;;;;;5005888;28;20228;-87
2023/04/26 07:05:53;;;;;;;;;;;8.60;99.90;;;;;;5025753;28;19908;-88
2023/04/26 07:08:19;;;;;;;;;;;8.80;99.90;;;;;;5001807;28;19912;-88
2023/04/26 07:10:45;;;;;;;;;;;8.90;99.90;;;;;;5023048;28;19913;-88
2023/04/26 07:13:10;;;;;;;;;;;9.10;99.90;;;;;;5022685;28;19909;-88
2023/04/26 07:15:36;;;;;;;;;;;9.10;99.90;;;;;;5026986;28;20282;-87
2023/04/26 07:18:01;;;;;;;;;;;9.20;99.90;;;;;;5026663;28;19917;-85
2023/04/26 07:20:27;;;;;;;;;;;9.40;99.90;;;;;;5022775;28;19909;-87
2023/04/26 07:22:52;;;;;;;;;;;9.50;99.90;;;;;;5026388;28;19908;-88
2023/04/26 07:25:18;;;;;;;;;;;9.50;99.90;;;;;;5034005;28;19912;-87
2023/04/26 07:27:43;;;;;;;;;;;9.50;99.90;;;;;;5032711;28;19928;-87
2023/04/26 07:30:09;;;;;;;;;;;9.50;99.90;;;;;;5037963;28;19916;-88
2023/04/26 07:32:35;;;;;;;;;;;9.70;99.90;;;;;;5014667;28;19912;-88
2023/04/26 07:35:02;;;;;;;;;;;9.90;99.90;;;;;;5019774;28;20284;-88
2023/04/26 07:37:28;;;;;;;;;;;9.70;99.90;;;;;;5019156;28;20008;-88
2023/04/26 07:39:53;;;;;;;;;;;9.80;99.90;;;;;;5024335;28;20376;-87
2023/04/26 07:42:19;;;;;;;;;;;9.90;99.90;;;;;;5022223;28;20006;-87
2023/04/26 07:44:46;;;;;;;;;;;9.90;99.90;;;;;;5019777;28;19990;-87
2023/04/26 07:47:12;;;;;;;;;;;10.10;99.90;;;;;;5028672;28;19905;-87
2023/04/26 07:49:38;;;;;;;;;;;10.10;99.90;;;;;;5042714;28;19951;-87
2023/04/26 07:52:03;;;;;;;;;;;10.20;99.90;;;;;;5034347;28;19913;-87
2023/04/26 07:54:31;;;;;;;;;;;10.40;99.90;;;;;;5020271;28;19960;-88
2023/04/26 07:56:57;;;;;;;;;;;10.20;99.90;;;;;;5033222;28;20077;-87
2023/04/26 07:59:22;;;;;;;;;;;10.10;99.90;;;;;;5028201;28;19908;-88
2023/04/26 08:01:49;;;;;;;;;;;10.20;99.90;;;;;;5032404;28;20019;-88
2023/04/26 08:04:14;;;;;;;;;;;10.30;99.90;;;;;;5021217;28;20000;-87
2023/04/26 08:06:43;;;;;;;;;;;10.50;99.90;;;;;;5033500;28;20557;-87
2023/04/26 08:09:10;;;;;;;;;;;10.60;99.90;;;;;;5031745;28;19905;-87
2023/04/26 08:11:35;;;;;;;;;;;10.60;99.90;;;;;;5018312;28;19915;-87
2023/04/26 08:14:01;;;;;;;;;;;10.80;99.90;;;;;;5017285;28;19909;-87
2023/04/26 08:16:26;;;;;;;;;;;11.30;99.90;;;;;;5019373;28;19920;-86
2023/04/26 08:18:52;;;;;;;;;;;11.40;99.90;;;;;;5022137;28;19905;-87
2023/04/26 08:21:17;;;;;;;;;;;11.30;99.90;;;;;;5017318;28;19908;-88
2023/04/26 08:23:43;;;;;;;;;;;11.10;99.90;;;;;;5019214;28;19909;-88
2023/04/26 08:26:11;;;;;;;;;;;11.20;99.90;;;;;;5030102;28;19913;-86
2023/04/26 08:28:36;;;;;;;;;;;11.30;99.90;;;;;;5023120;28;19909;-87
2023/04/26 08:31:03;;;;;;;;;;;11.30;99.90;;;;;;5024713;28;19935;-88
2023/04/26 08:33:28;;;;;;;;;;;11.00;99.90;;;;;;5016534;28;19916;-88
2023/04/26 08:35:54;;;;;;;;;;;11.20;99.90;;;;;;5023015;28;20279;-87
2023/04/26 08:38:21;;;;;;;;;;;11.30;99.90;;;;;;5013903;28;19913;-88
2023/04/26 08:40:46;;;;;;;;;;;11.40;99.90;;;;;;5028388;28;19905;-88
2023/04/26 08:43:13;;;;;;;;;;;11.70;97.90;;;;;;5041624;28;19909;-88
2023/04/26 08:45:39;;;;;;;;;;;11.60;99.90;;;;;;5033783;28;19916;-88
2023/04/26 08:48:10;;;;;;;;;;;11.60;98.20;;;;;;5024478;28;19981;-88
2023/04/26 08:50:37;;;;;;;;;;;11.60;97.50;;;;;;5022768;28;19909;-88
2023/04/26 08:53:03;;;;;;;;;;;11.60;98.80;;;;;;5042627;28;20360;-85
2023/04/26 08:55:46;;;;;;;;;;;11.70;98.10;;;;;;5028485;28;19930;-88
2023/04/26 08:58:12;;;;;;;;;;;11.60;98.40;;;;;;5039088;28;19912;-85
2023/04/26 09:00:37;;;;;;;;;;;11.60;99.10;;;;;;5035432;28;20351;-86
2023/04/26 09:03:03;;;;;;;;;;;11.70;98.00;;;;;;5015837;28;20284;-85
2023/04/26 09:05:28;;;;;;;;;;;11.60;98.50;;;;;;5026731;28;19908;-87
2023/04/26 09:08:00;;;;;;;;;;;11.70;99.00;;;;;;5026911;28;19971;-86
2023/04/26 09:10:27;;;;;;;;;;;11.60;97.70;;;;;;5011363;28;19913;-92
2023/04/26 09:12:53;;;;;;;;;;;11.80;98.00;;;;;;5029519;28;19909;-93
2023/04/26 09:15:20;;;;;;;;;;;11.80;98.10;;;;;;5024053;28;19964;-86
2023/04/26 09:17:45;;;;;;;;;;;11.90;97.70;;;;;;5010218;28;19924;-86
2023/04/26 09:20:19;;;;;;;;;;;12.20;97.80;;;;;;5018079;28;20473;-88
2023/04/26 09:22:45;;;;;;;;;;;12.50;96.70;;;;;;5003049;28;19913;-87
2023/04/26 09:25:14;;;;;;;;;;;12.70;97.00;;;;;;5017123;28;19939;-87
2023/04/26 09:27:42;;;;;;;;;;;12.50;95.60;;;;;;5036925;28;19939;-87
2023/04/26 09:30:09;;;;;;;;;;;12.70;95.20;;;;;;5017326;28;19909;-87
2023/04/26 09:32:44;;;;;;;;;;;12.80;93.30;;;;;;5019837;28;19955;-86
2023/04/26 09:35:32;;;;;;;;;;;13.20;93.70;;;;;;5007006;28;19912;-86
2023/04/26 09:38:00;;;;;;;;;;;13.40;92.90;;;;;;5027901;28;19952;-87
2023/04/26 09:40:27;;;;;;;;;;;13.00;92.40;;;;;;5039917;28;19931;-86
2023/04/26 09:43:03;;;;;;;;;;;12.90;92.60;;;;;;5018901;28;19931;-85
2023/04/26 09:45:32;;;;;;;;;;;12.70;92.50;;;;;;5030797;28;19901;-84
2023/04/26 09:48:21;;;;;;;;;;;12.60;92.90;;;;;;5017998;28;19984;-85
2023/04/26 09:50:47;;;;;;;;;;;12.40;93.60;;;;;;5003038;28;20037;-85
2023/04/26 09:53:36;;;;;;;;;;;12.20;93.80;;;;;;5038697;28;19905;-85
2023/04/26 09:56:07;;;;;;;;;;;12.00;94.20;;;;;;5010119;28;20342;-85
2023/04/26 09:58:32;;;;;;;;;;;12.00;94.30;;;;;;5035704;28;19928;-91
2023/04/26 10:00:58;;;;;;;;;;;12.00;95.50;;;;;;5012423;28;19913;-87
2023/04/26 10:03:24;;;;;;;;;;;12.10;95.10;;;;;;5013071;28;19908;-86
2023/04/26 10:05:51;;;;;;;;;;;11.90;95.30;;;;;;5011367;28;19914;-85
2023/04/26 10:08:16;;;;;;;;;;;12.30;95.80;;;;;;5032976;28;19905;-86
2023/04/26 10:10:42;;;;;;;;;;;12.80;95.10;;;;;;5016944;28;19909;-86
2023/04/26 10:13:09;;;;;;;;;;;14.00;95.90;;;;;;5020801;28;19909;-87
2023/04/26 10:15:36;;;;;;;;;;;15.20;92.30;;;;;;5020209;28;20006;-86
2023/04/26 10:18:02;;;;;;;;;;;15.80;88.80;;;;;;5012353;28;19913;-85
2023/04/26 10:20:38;;;;;;;;;;;16.70;89.60;;;;;;5033868;28;19919;-85
2023/04/26 10:23:05;;;;;;;;;;;15.90;86.20;;;;;;5001237;28;20004;-86
2023/04/26 10:25:35;;;;;;;;;;;15.50;82.30;;;;;;5022137;28;19904;-86
2023/04/26 10:28:02;;;;;;;;;;;15.60;82.30;;;;;;5019517;28;20267;-87
2023/04/26 10:30:27;;;;;;;;;;;16.10;80.30;;;;;;5022507;28;19920;-88
2023/04/26 10:32:59;;;;;;;;;;;16.40;76.10;;;;;;5024548;28;19925;-88
2023/04/26 10:35:29;;;;;;;;;;;17.00;73.70;;;;;;5019149;28;20038;-87
2023/04/26 10:37:58;;;;;;;;;;;17.40;74.00;;;;;;5021029;28;20376;-88
2023/04/26 10:40:25;;;;;;;;;;;17.70;67.10;;;;;;5015919;28;19912;-88
2023/04/26 10:43:18;;;;;;;;;;;17.60;62.30;;;;;;5030984;28;19920;-87
2023/04/26 10:45:47;;;;;;;;;;;17.50;61.70;;;;;;5020977;28;19959;-88
2023/04/26 10:48:17;;;;;;;;;;;16.90;64.00;;;;;;5013195;28;20365;-86
2023/04/26 10:50:58;;;;;;;;;;;16.60;63.10;;;;;;5033190;28;19906;-88
2023/04/26 10:53:24;;;;;;;;;;;15.60;66.40;;;;;;5003500;28;20379;-88
2023/04/26 10:55:49;;;;;;;;;;;14.90;69.50;;;;;;5018477;28;19912;-86
2023/04/26 10:58:41;;;;;;;;;;;14.50;70.70;;;;;;5020738;28;19919;-87
2023/04/26 11:01:16;;;;;;;;;;;14.30;72.20;;;;;;5048689;28;19921;-88
2023/04/26 11:03:42;;;;;;;;;;;14.30;76.00;;;;;;5016258;28;19913;-86
2023/04/26 11:06:08;;;;;;;;;;;14.50;76.40;;;;;;5044047;28;19922;-85
2023/04/26 11:08:35;;;;;;;;;;;14.70;73.60;;;;;;5037843;28;19908;-86
2023/04/26 11:11:01;;;;;;;;;;;14.80;70.20;;;;;;5016935;28;20301;-86
2023/04/26 11:13:29;;;;;;;;;;;14.80;71.60;;;;;;5021824;28;19911;-85
2023/04/26 11:16:02;;;;;;;;;;;14.40;68.70;;;;;;5036628;28;19904;-85
2023/04/26 11:18:31;;;;;;;;;;;14.80;73.60;;;;;;5027484;28;19947;-85
2023/04/26 11:20:57;;;;;;;;;;;14.90;69.40;;;;;;5034519;28;19916;-92
2023/04/26 11:23:23;;;;;;;;;;;15.00;71.30;;;;;;5015021;28;19909;-85
2023/04/26 11:25:48;;;;;;;;;;;15.00;66.30;;;;;;5020787;28;19976;-89
2023/04/26 11:28:14;;;;;;;;;;;15.50;67.00;;;;;;5026766;28;19916;-87
2023/04/26 11:30:42;;;;;;;;;;;15.80;68.20;;;;;;5019211;28;20505;-87
2023/04/26 11:33:16;;;;;;;;;;;16.10;65.60;;;;;;5013854;28;19952;-87
2023/04/26 11:35:41;;;;;;;;;;;16.20;68.90;;;;;;5034754;28;19908;-87
2023/04/26 11:38:10;;;;;;;;;;;17.00;68.20;;;;;;5015072;28;19915;-87
2023/04/26 11:40:36;;;;;;;;;;;17.30;64.20;;;;;;5018965;28;19917;-87
2023/04/26 11:43:05;;;;;;;;;;;17.10;61.00;;;;;;5025709;28;19909;-86
2023/04/26 11:45:31;;;;;;;;;;;16.70;62.50;;;;;;5031592;28;20308;-87
2023/04/26 11:47:57;;;;;;;;;;;16.20;62.60;;;;;;5017973;28;20344;-86
2023/04/26 11:50:25;;;;;;;;;;;15.70;64.30;;;;;;5033345;28;19909;-87
2023/04/26 11:52:55;;;;;;;;;;;15.30;67.10;;;;;;5024861;28;19911;-88
2023/04/26 11:55:26;;;;;;;;;;;15.30;66.40;;;;;;5023509;28;19913;-87
2023/04/26 11:57:51;;;;;;;;;;;14.90;62.50;;;;;;5019791;28;19943;-88
2023/04/26 12:00:17;;;;;;;;;;;14.60;66.30;;;;;;5026183;28;20283;-87
2023/04/26 12:02:46;;;;;;;;;;;14.60;67.90;;;;;;5033875;28;20858;-88
2023/04/26 12:05:25;;;;;;;;;;;14.60;69.50;;;;;;5023415;28;19928;-88
2023/04/26 12:07:55;;;;;;;;;;;14.70;70.30;;;;;;5004405;28;19909;-88
2023/04/26 12:10:27;;;;;;;;;;;14.70;69.50;;;;;;5006737;28;19943;-87
2023/04/26 12:12:55;;;;;;;;;;;14.70;71.50;;;;;;5016350;28;19905;-86
2023/04/26 12:15:31;;;;;;;;;;;14.80;70.50;;;;;;5019722;28;19905;-88
2023/04/26 12:18:15;;;;;;;;;;;14.90;70.20;;;;;;5008649;28;19959;-87
2023/04/26 12:20:41;;;;;;;;;;;15.00;72.30;;;;;;5021268;28;19913;-87
2023/04/26 12:23:08;;;;;;;;;;;15.20;70.80;;;;;;5024920;28;19908;-88
2023/04/26 12:25:34;;;;;;;;;;;15.40;68.70;;;;;;5025706;28;19921;-87
2023/04/26 12:28:00;;;;;;;;;;;15.30;69.60;;;;;;5023202;28;19905;-88
2023/04/26 12:30:27;;;;;;;;;;;15.30;71.50;;;;;;5035951;28;19909;-90
2023/04/26 12:32:52;;;;;;;;;;;15.50;71.70;;;;;;5023743;28;20408;-86
2023/04/26 12:35:18;;;;;;;;;;;15.70;69.40;;;;;;5022301;28;19952;-91
2023/04/26 12:40:13;;;;;;;;;;;15.90;70.80;;;;;;5017476;28;21716;-88
2023/04/26 12:42:39;;;;;;;;;;;16.20;68.70;;;;;;5009077;28;19989;-90
2023/04/26 12:45:05;;;;;;;;;;;16.90;68.10;;;;;;5004382;28;19928;-89
2023/04/26 12:47:30;;;;;;;;;;;17.70;66.80;;;;;;4992431;28;19913;-89
2023/04/26 12:49:59;;;;;;;;;;;18.00;63.90;;;;;;5002207;28;20375;-89
2023/04/26 12:52:26;;;;;;;;;;;18.00;64.50;;;;;;5005783;28;19909;-89
2023/04/26 12:54:51;;;;;;;;;;;17.80;62.40;;;;;;5000517;28;19920;-90
2023/04/26 12:57:18;;;;;;;;;;;17.50;61.10;;;;;;4993486;28;19914;-90
2023/04/26 12:59:43;;;;;;;;;;;16.90;61.00;;;;;;5005244;28;19916;-90
2023/04/26 13:02:09;;;;;;;;;;;16.60;64.70;;;;;;5002300;28;21109;-89
2023/04/26 13:04:34;;;;;;;;;;;16.30;66.60;;;;;;5004764;28;19984;-91
2023/04/26 13:07:05;;;;;;;;;;;16.10;66.90;;;;;;4998759;28;20213;-90
2023/04/26 13:09:31;;;;;;;;;;;15.90;67.60;;;;;;5012550;28;19905;-88
2023/04/26 13:11:56;;;;;;;;;;;15.90;68.60;;;;;;4995493;28;19909;-88
2023/04/26 13:14:22;;;;;;;;;;;15.70;67.30;;;;;;5005813;28;20272;-89
2023/04/26 13:16:48;;;;;;;;;;;15.70;69.40;;;;;;5001219;28;19921;-89
2023/04/26 13:19:13;;;;;;;;;;;15.50;68.70;;;;;;5020447;28;19992;-88
2023/04/26 13:21:40;;;;;;;;;;;15.50;69.10;;;;;;5003996;28;19995;-89
2023/04/26 13:24:06;;;;;;;;;;;15.50;69.80;;;;;;5002401;28;19906;-88
2023/04/26 13:26:32;;;;;;;;;;;15.70;69.60;;;;;;5016276;28;20349;-87
2023/04/26 13:28:58;;;;;;;;;;;15.80;70.50;;;;;;5015521;28;19906;-88
2023/04/26 13:31:23;;;;;;;;;;;15.70;70.20;;;;;;5016951;28;20382;-87
2023/04/26 13:33:49;;;;;;;;;;;15.80;69.10;;;;;;5000679;28;19928;-87
2023/04/26 13:36:15;;;;;;;;;;;15.80;68.10;;;;;;4986626;28;19962;-88
2023/04/26 13:38:41;;;;;;;;;;;15.70;67.10;;;;;;5015513;28;19925;-88
2023/04/26 13:41:07;;;;;;;;;;;15.50;69.80;;;;;;4998736;28;20396;-89
2023/04/26 13:43:33;;;;;;;;;;;15.40;70.10;;;;;;5014373;28;19906;-87
2023/04/26 13:45:59;;;;;;;;;;;15.30;71.50;;;;;;5014602;28;19932;-88
2023/04/26 13:48:24;;;;;;;;;;;15.10;70.30;;;;;;5010556;28;19932;-90
2023/04/26 13:50:50;;;;;;;;;;;15.00;71.40;;;;;;5021828;28;19913;-86
2023/04/26 13:53:15;;;;;;;;;;;14.80;70.20;;;;;;5009361;28;20258;-86
2023/04/26 13:55:41;;;;;;;;;;;14.80;69.80;;;;;;5001171;28;19906;-89
2023/04/26 13:58:06;;;;;;;;;;;14.80;71.60;;;;;;4980859;28;19917;-88
2023/04/26 14:00:32;;;;;;;;;;;14.90;70.50;;;;;;4985084;28;19905;-87
2023/04/26 14:02:57;;;;;;;;;;;15.00;71.10;;;;;;5005011;28;20380;-86
2023/04/26 14:05:23;;;;;;;;;;;15.20;71.70;;;;;;4987621;28;19912;-87
2023/04/26 14:07:49;;;;;;;;;;;15.20;71.80;;;;;;4986177;28;19982;-88
2023/04/26 14:10:14;;;;;;;;;;;15.00;69.40;;;;;;5017879;28;19969;-88
2023/04/26 14:12:41;;;;;;;;;;;15.00;71.60;;;;;;5004931;28;19917;-88
2023/04/26 14:15:06;;;;;;;;;;;15.00;69.30;;;;;;5008010;28;19939;-90
2023/04/26 14:17:32;;;;;;;;;;;14.90;67.90;;;;;;5004453;28;19937;-89
2023/04/26 14:19:57;;;;;;;;;;;15.30;67.80;;;;;;4998068;28;19985;-88
2023/04/26 14:22:23;;;;;;;;;;;15.90;66.60;;;;;;5006196;28;19921;-88
2023/04/26 14:24:49;;;;;;;;;;;16.60;66.90;;;;;;5017588;28;19960;-89